Terminal Aerodrome Forecast
Issued by NWS

Home | Current Version | Previous Version | Text Only | Print | Product List | Glossary On
Versions: 1 2 3 4 5 6 7 8 9 10 11 12 13 14 15 16 17 18
000
FTUS43 KBIS 180400 AAB
TAFDIK
TAF AMD
KDIK 180410Z 1804/1824 15009KT P6SM OVC008
      TEMPO 1804/1807 3SM -SN BR OVC003
     FM180700 17008KT P6SM -SN OVC004
     FM181600 20007KT P6SM OVC007
     FM182000 23009KT P6SM OVC012=

USA.gov is the U.S. government's official web portal to all federal, state and local government web resources and services.